Huvudsida
METAR-TAF:

METAR-TAF

Flygplatser :

Berlin-Tegels flygplats

Berlin, Tyskland

latitud: 52-34N, longitud: 013-19E, höjd: 37 m

Aktuellt väderrapport

Denna rapport gjordes för 13 minuter sedan, klockan 03:20 UTC
Vind 5 kt från ost/nordost, varierande mellan nord/nordost och ost/sydost
Temperatur 16°C
Fuktighet 63%
Tryck 1022 hPa
Sikt 10 km eller mer
Inga moln under 1 500 m eller inga cumulonimbus

METAR: EDDT 250320Z 07005KT 030V110 CAVOK 16/09 Q1022 NOSIG

Tid: 05:33 (03:33 UTC)

Väderprognos

Denna rapport gjordes för 4 timmar och 33 minuter sedan, klockan 23:00 UTC
Prognos gäller från 25 kl. 00 UTC till 25 kl. 24 UTC
Vind 8 kt från ost/nordost
Sikt 10 km eller mer
Inga moln under 1 500 m eller inga cumulonimbus

TAF: EDDT 242300Z 2500/2524 07008KT CAVOK

Aktuella väderrapporter och prognoser från 4000 flygplatser (METAR- och TAF-rapporter).

De tillgängliga stationerna syns som gula och röda prickar på kartan.

För musen över prickarna för att se namnen på stationerna.

Klicka sedan för att få väderrapporter och prognoser.

För att ändra kartan: Klicka på de gröna knapparna med ett svart kors på för att zooma in; den gröna knappen med ett streck på för att zooma ut; eller på de gröna pilarna för angränsande kartor.


METAR-TAF: